createdAt,value
2019-04-21T00:01:37.676Z,7.20
2019-04-21T00:04:11.377Z,7.30
2019-04-21T00:06:58.722Z,7.20
2019-04-21T00:11:55.382Z,6.60
2019-04-21T00:14:19.944Z,6.50
2019-04-21T00:16:47.997Z,6.40
2019-04-21T00:19:22.627Z,6.50
2019-04-21T00:21:53.504Z,6.70
2019-04-21T00:24:31.944Z,6.90
2019-04-21T00:27:07.001Z,6.80
2019-04-21T00:32:03.425Z,6.60
2019-04-21T00:34:19.598Z,6.50
2019-04-21T00:36:59.607Z,6.40
2019-04-21T00:39:48.847Z,6.30
2019-04-21T00:42:10.671Z,6.20
2019-04-21T00:44:30.809Z,6.30
2019-04-21T00:47:01.974Z,6.30
2019-04-21T00:49:36.921Z,6.20
2019-04-21T00:52:31.750Z,6.10
2019-04-21T00:55:02.975Z,6.00
2019-04-21T00:57:31.138Z,5.80
2019-04-21T00:59:57.080Z,5.70
2019-04-21T01:02:27.999Z,5.60
2019-04-21T01:05:00.054Z,5.60
2019-04-21T01:07:30.494Z,5.50
2019-04-21T01:09:48.551Z,5.50
2019-04-21T01:12:26.866Z,5.50
2019-04-21T01:15:06.555Z,5.40
2019-04-21T01:17:27.750Z,5.30
2019-04-21T01:19:50.689Z,5.30
2019-04-21T01:22:05.561Z,5.30
2019-04-21T01:24:38.316Z,5.20
2019-04-21T01:27:12.699Z,5.20
2019-04-21T01:29:53.368Z,5.30
2019-04-21T01:32:31.238Z,5.40
2019-04-21T01:34:57.960Z,5.50
2019-04-21T01:37:36.087Z,5.40
2019-04-21T01:40:02.522Z,5.40
2019-04-21T01:42:28.198Z,5.40
2019-04-21T01:44:58.293Z,5.40
2019-04-21T01:47:20.475Z,5.30
2019-04-21T01:49:47.480Z,5.20
2019-04-21T01:52:38.424Z,5.10
2019-04-21T01:55:01.893Z,5.00
2019-04-21T01:57:30.759Z,5.00
2019-04-21T01:59:57.074Z,4.90
2019-04-21T02:02:40.353Z,4.80
2019-04-21T02:05:11.794Z,4.80
2019-04-21T02:07:40.700Z,4.80
2019-04-21T02:10:11.162Z,4.70
2019-04-21T02:12:42.742Z,4.70
2019-04-21T02:15:11.286Z,4.70
2019-04-21T02:17:34.164Z,4.80
2019-04-21T02:20:00.634Z,4.80
2019-04-21T02:22:45.927Z,4.80
2019-04-21T02:25:08.616Z,4.70
2019-04-21T02:27:37.650Z,4.70
2019-04-21T02:32:47.923Z,4.70
2019-04-21T02:35:30.652Z,4.70
2019-04-21T02:37:55.573Z,4.70
2019-04-21T02:40:21.540Z,4.70
2019-04-21T02:43:02.753Z,4.70
2019-04-21T02:45:17.175Z,4.70
2019-04-21T02:55:07.829Z,4.30
2019-04-21T02:57:51.865Z,4.20
2019-04-21T03:05:48.750Z,4.00
2019-04-21T03:08:35.416Z,3.90
2019-04-21T03:10:51.731Z,3.80
2019-04-21T03:13:15.179Z,3.80
2019-04-21T03:20:42.448Z,4.00
2019-04-21T03:23:23.248Z,3.90
2019-04-21T03:28:14.076Z,3.80
2019-04-21T03:31:11.498Z,3.90
2019-04-21T03:38:19.122Z,3.80
2019-04-21T03:40:40.465Z,3.70
2019-04-21T03:43:20.294Z,3.60
2019-04-21T03:45:42.306Z,3.50
2019-04-21T03:48:20.814Z,3.50
2019-04-21T03:53:20.854Z,3.50
2019-04-21T03:58:24.018Z,3.50
2019-04-21T04:01:05.440Z,3.40
2019-04-21T04:04:06.715Z,3.40
2019-04-21T04:06:25.708Z,3.50
2019-04-21T04:09:19.597Z,3.40
2019-04-21T04:11:51.102Z,3.40
2019-04-21T04:14:12.850Z,3.20
2019-04-21T04:16:51.531Z,3.20
2019-04-21T04:19:09.401Z,3.20
2019-04-21T04:24:13.367Z,3.40
2019-04-21T04:26:39.422Z,3.30
2019-04-21T04:29:18.326Z,3.20
2019-04-21T04:34:16.729Z,3.20
2019-04-21T04:39:35.833Z,3.20
2019-04-21T04:44:46.592Z,3.30
2019-04-21T04:47:16.616Z,3.40
2019-04-21T04:49:46.068Z,3.50
2019-04-21T04:57:09.901Z,3.20
2019-04-21T05:02:17.104Z,3.20
2019-04-21T05:09:39.377Z,3.30
2019-04-21T05:12:03.614Z,3.30
2019-04-21T05:14:41.049Z,3.30
2019-04-21T05:17:11.218Z,3.40
2019-04-21T05:19:51.865Z,3.50
2019-04-21T05:22:11.669Z,3.70
2019-04-21T05:24:28.423Z,3.90
2019-04-21T05:26:53.384Z,4.20
2019-04-21T05:29:24.500Z,4.50
2019-04-21T05:32:10.602Z,4.90
2019-04-21T05:34:42.688Z,5.00
2019-04-21T05:37:31.659Z,5.30
2019-04-21T05:39:55.837Z,5.40
2019-04-21T05:42:27.209Z,5.70
2019-04-21T05:45:21.095Z,6.00
2019-04-21T05:47:40.110Z,6.00
2019-04-21T05:50:04.534Z,6.30
2019-04-21T05:52:29.320Z,6.80
2019-04-21T05:55:12.967Z,6.90
2019-04-21T05:57:38.074Z,7.00
2019-04-21T06:00:12.413Z,7.10
2019-04-21T06:02:40.330Z,7.10
2019-04-21T06:05:20.367Z,7.40
2019-04-21T06:07:46.197Z,7.90
2019-04-21T06:10:10.630Z,8.30
2019-04-21T06:12:43.095Z,8.90
2019-04-21T06:15:12.299Z,9.20
2019-04-21T06:17:45.625Z,9.40
2019-04-21T06:20:10.346Z,9.70
2019-04-21T06:22:36.320Z,10.00
2019-04-21T06:25:31.651Z,10.20
2019-04-21T06:27:42.405Z,10.40
2019-04-21T06:30:06.893Z,10.60
2019-04-21T06:32:47.125Z,10.90
2019-04-21T06:35:45.286Z,11.00
2019-04-21T06:37:58.074Z,11.00
2019-04-21T06:40:37.305Z,10.90
2019-04-21T06:43:11.382Z,10.70
2019-04-21T06:45:37.824Z,10.70
2019-04-21T06:48:04.683Z,10.60
2019-04-21T06:50:30.222Z,10.50
2019-04-21T06:53:06.799Z,10.50
2019-04-21T06:55:35.190Z,10.50
2019-04-21T06:57:58.197Z,10.60
2019-04-21T07:00:31.131Z,10.70
2019-04-21T07:03:20.200Z,10.80
2019-04-21T07:05:37.137Z,10.90
2019-04-21T07:08:14.864Z,11.00
2019-04-21T07:10:35.096Z,11.00
2019-04-21T07:13:03.730Z,11.20
2019-04-21T07:15:39.129Z,11.30
2019-04-21T07:18:08.998Z,11.40
2019-04-21T07:20:38.001Z,11.60
2019-04-21T07:23:13.440Z,11.80
2019-04-21T07:25:39.280Z,12.10
2019-04-21T07:28:03.640Z,12.20
2019-04-21T07:30:44.248Z,12.50
2019-04-21T07:35:37.302Z,12.90
2019-04-21T07:38:04.389Z,13.20
2019-04-21T07:40:36.492Z,13.40
2019-04-21T07:43:02.725Z,13.70
2019-04-21T07:45:35.166Z,14.10
2019-04-21T07:48:29.706Z,14.60
2019-04-21T07:51:09.163Z,15.00
2019-04-21T07:53:55.791Z,15.30
2019-04-21T07:56:09.456Z,15.60
2019-04-21T07:58:58.797Z,15.80
2019-04-21T08:01:24.480Z,16.00
2019-04-21T08:03:54.227Z,16.20
2019-04-21T08:06:27.036Z,16.40
2019-04-21T08:08:52.823Z,16.50
2019-04-21T08:11:19.469Z,16.60
2019-04-21T08:13:52.591Z,16.70
2019-04-21T08:16:24.236Z,16.90
2019-04-21T08:18:51.898Z,16.90
2019-04-21T08:21:23.649Z,17.10
2019-04-21T08:23:47.670Z,17.10
2019-04-21T08:26:29.210Z,17.20
2019-04-21T08:28:53.686Z,17.30
2019-04-21T08:36:29.551Z,17.70
2019-04-21T08:38:54.028Z,17.90
2019-04-21T08:41:27.734Z,17.90
2019-04-21T08:43:54.672Z,18.00
2019-04-21T08:46:23.951Z,18.10
2019-04-21T08:48:56.768Z,18.30
2019-04-21T08:56:27.319Z,18.50
2019-04-21T08:59:19.275Z,18.50
2019-04-21T09:01:55.462Z,18.60
2019-04-21T09:04:30.580Z,18.70
2019-04-21T09:07:04.644Z,18.70
2019-04-21T09:09:31.991Z,18.80
2019-04-21T09:12:01.688Z,19.00
2019-04-21T09:14:31.045Z,19.00
2019-04-21T09:16:56.345Z,19.10
2019-04-21T09:19:38.616Z,19.30
2019-04-21T09:22:02.247Z,19.40
2019-04-21T09:24:31.281Z,19.50
2019-04-21T09:26:59.341Z,19.60
2019-04-21T09:29:21.703Z,19.60
2019-04-21T09:31:46.082Z,19.60
2019-04-21T09:34:20.761Z,19.60
2019-04-21T09:36:49.553Z,19.80
2019-04-21T09:39:18.397Z,19.90
2019-04-21T09:41:44.931Z,20.10
2019-04-21T09:44:20.346Z,20.20
2019-04-21T09:46:51.909Z,20.30
2019-04-21T09:49:20.210Z,20.30
2019-04-21T09:51:44.106Z,20.50
2019-04-21T09:54:20.662Z,20.60
2019-04-21T09:56:52.462Z,20.80
2019-04-21T09:59:20.841Z,21.00
2019-04-21T10:01:56.831Z,21.00
2019-04-21T10:04:14.269Z,21.20
2019-04-21T10:06:43.220Z,21.30
2019-04-21T10:09:14.796Z,21.20
2019-04-21T10:11:41.941Z,21.40
2019-04-21T10:14:11.631Z,21.50
2019-04-21T10:16:42.872Z,21.60
2019-04-21T10:19:11.460Z,21.70
2019-04-21T10:21:40.295Z,21.70
2019-04-21T10:24:08.796Z,21.90
2019-04-21T10:26:37.605Z,22.00
2019-04-21T10:29:14.779Z,22.10
2019-04-21T10:31:38.743Z,22.10
2019-04-21T10:34:07.449Z,22.20
2019-04-21T10:36:36.948Z,22.30
2019-04-21T10:39:06.796Z,22.40
2019-04-21T10:41:35.245Z,22.40
2019-04-21T10:44:07.202Z,22.30
2019-04-21T10:46:36.875Z,22.30
2019-04-21T10:49:06.452Z,22.30
2019-04-21T10:51:35.200Z,22.50
2019-04-21T10:54:04.096Z,22.60
2019-04-21T10:56:37.982Z,22.60
2019-04-21T10:59:02.853Z,22.60
2019-04-21T11:01:31.567Z,22.60
2019-04-21T11:04:02.723Z,22.50
2019-04-21T11:06:32.500Z,22.60
2019-04-21T11:09:03.008Z,22.70
2019-04-21T11:11:32.100Z,22.80
2019-04-21T11:14:00.681Z,22.90
2019-04-21T11:16:29.191Z,23.00
2019-04-21T11:18:58.053Z,22.90
2019-04-21T11:21:27.109Z,22.90
2019-04-21T11:23:56.545Z,22.90
2019-04-21T11:26:25.104Z,23.00
2019-04-21T11:28:54.949Z,23.10
2019-04-21T11:31:24.928Z,23.10
2019-04-21T11:33:53.529Z,23.10
2019-04-21T11:36:22.024Z,23.20
2019-04-21T11:39:06.159Z,23.30
2019-04-21T11:41:23.806Z,23.40
2019-04-21T11:43:53.120Z,23.40
2019-04-21T11:46:22.538Z,23.40
2019-04-21T11:48:52.395Z,23.40
2019-04-21T11:51:20.992Z,23.50
2019-04-21T11:53:50.676Z,23.50
2019-04-21T11:56:19.228Z,23.60
2019-04-21T11:58:47.845Z,23.70
2019-04-21T12:01:17.884Z,23.60
2019-04-21T12:03:47.532Z,23.70
2019-04-21T12:06:17.402Z,23.70
2019-04-21T12:08:49.423Z,23.80
2019-04-21T12:11:17.665Z,23.80
2019-04-21T12:13:46.433Z,23.80
2019-04-21T12:16:15.201Z,23.90
2019-04-21T12:18:45.020Z,23.90
2019-04-21T12:21:13.668Z,23.90
2019-04-21T12:23:42.744Z,23.90
2019-04-21T12:26:11.356Z,24.10
2019-04-21T12:28:39.903Z,24.10
2019-04-21T12:31:10.029Z,24.20
2019-04-21T12:33:43.620Z,24.10
2019-04-21T12:36:13.674Z,24.20
2019-04-21T12:38:48.827Z,24.20
2019-04-21T12:41:12.894Z,24.20
2019-04-21T12:43:42.571Z,24.10
2019-04-21T12:46:11.979Z,24.20
2019-04-21T12:48:41.990Z,24.30
2019-04-21T12:51:12.168Z,24.30
2019-04-21T12:53:41.586Z,24.30
2019-04-21T12:56:11.591Z,24.30
2019-04-21T12:58:41.552Z,24.40
2019-04-21T13:01:10.177Z,24.40
2019-04-21T13:03:39.702Z,24.50
2019-04-21T13:06:09.785Z,24.60
2019-04-21T13:08:45.572Z,24.60
2019-04-21T13:11:09.591Z,24.60
2019-04-21T13:13:39.861Z,24.70
2019-04-21T13:16:09.638Z,24.70
2019-04-21T13:18:39.477Z,24.70
2019-04-21T13:21:08.265Z,24.70
2019-04-21T13:23:36.982Z,24.70
2019-04-21T13:26:06.510Z,24.70
2019-04-21T13:28:37.519Z,24.70
2019-04-21T13:31:06.540Z,24.80
2019-04-21T13:33:35.254Z,24.90
2019-04-21T13:36:04.999Z,25.00
2019-04-21T13:38:42.181Z,25.10
2019-04-21T13:41:25.888Z,25.10
2019-04-21T13:43:43.353Z,25.10
2019-04-21T13:46:12.164Z,25.10
2019-04-21T13:48:42.390Z,25.10
2019-04-21T13:51:11.259Z,25.20
2019-04-21T13:53:39.973Z,25.20
2019-04-21T13:56:08.954Z,25.30
2019-04-21T13:58:38.030Z,25.40
2019-04-21T14:01:07.692Z,25.30
2019-04-21T14:03:37.583Z,25.30
2019-04-21T14:06:06.688Z,25.50
2019-04-21T14:08:36.854Z,25.50
2019-04-21T14:11:05.463Z,25.50
2019-04-21T14:13:34.277Z,25.60
2019-04-21T14:16:04.093Z,25.60
2019-04-21T14:18:32.920Z,25.60
2019-04-21T14:21:03.090Z,25.70
2019-04-21T14:23:38.102Z,25.70
2019-04-21T14:26:02.008Z,25.70
2019-04-21T14:28:30.440Z,25.80
2019-04-21T14:30:58.925Z,25.90
2019-04-21T14:33:27.873Z,25.90
2019-04-21T14:35:56.843Z,26.10
2019-04-21T14:38:26.699Z,26.20
2019-04-21T14:40:56.466Z,26.30
2019-04-21T14:43:25.959Z,26.30
2019-04-21T14:46:06.436Z,26.40
2019-04-21T14:48:53.112Z,26.50
2019-04-21T14:51:36.886Z,26.50
2019-04-21T14:54:24.796Z,26.80
2019-04-21T14:56:53.482Z,27.20
2019-04-21T14:59:22.039Z,28.10
2019-04-21T15:01:51.701Z,28.60
2019-04-21T15:04:21.039Z,29.20
2019-04-21T15:06:51.694Z,30.20
2019-04-21T15:09:21.031Z,30.50
2019-04-21T15:11:49.926Z,31.40
2019-04-21T15:14:19.994Z,31.90
2019-04-21T15:16:49.069Z,31.80
2019-04-21T15:19:17.606Z,31.20
2019-04-21T15:21:46.015Z,30.60
2019-04-21T15:24:14.460Z,30.70
2019-04-21T15:26:44.247Z,31.10
2019-04-21T15:29:12.833Z,30.40
2019-04-21T15:31:44.620Z,29.40
2019-04-21T15:34:13.006Z,29.10
2019-04-21T15:36:41.934Z,28.70
2019-04-21T15:39:11.757Z,28.50
2019-04-21T15:41:40.795Z,28.40
2019-04-21T15:44:09.909Z,28.50
2019-04-21T15:46:39.736Z,28.30
2019-04-21T15:49:09.237Z,28.30
2019-04-21T15:51:42.172Z,28.10
2019-04-21T15:54:10.988Z,27.90
2019-04-21T15:56:41.172Z,27.70
2019-04-21T15:59:18.835Z,27.30
2019-04-21T16:01:50.564Z,26.90
2019-04-21T16:04:19.202Z,26.60
2019-04-21T16:06:47.831Z,26.30
2019-04-21T16:09:21.303Z,26.00
2019-04-21T16:11:46.497Z,25.70
2019-04-21T16:14:16.555Z,25.50
2019-04-21T16:16:45.458Z,25.40
2019-04-21T16:19:14.354Z,25.30
2019-04-21T16:21:46.320Z,25.30
2019-04-21T16:24:14.284Z,25.20
2019-04-21T16:26:44.304Z,25.40
2019-04-21T16:29:13.220Z,25.50
2019-04-21T16:31:42.673Z,25.40
2019-04-21T16:34:11.273Z,25.30
2019-04-21T16:36:39.771Z,25.30
2019-04-21T16:39:09.518Z,25.70
2019-04-21T16:41:38.367Z,26.10
2019-04-21T16:44:07.261Z,26.10
2019-04-21T16:46:35.788Z,25.80
2019-04-21T16:49:04.375Z,25.60
2019-04-21T16:51:33.919Z,25.30
2019-04-21T16:54:04.103Z,25.10
2019-04-21T16:56:34.191Z,24.90
2019-04-21T16:59:10.608Z,24.70
2019-04-21T17:01:40.548Z,24.60
2019-04-21T17:04:10.649Z,24.40
2019-04-21T17:06:40.785Z,24.30
2019-04-21T17:09:10.624Z,24.20
2019-04-21T17:11:42.007Z,24.10
2019-04-21T17:14:27.296Z,24.00
2019-04-21T17:17:03.773Z,23.90
2019-04-21T17:19:18.041Z,23.90
2019-04-21T17:21:41.483Z,23.90
2019-04-21T17:24:10.596Z,23.80
2019-04-21T17:26:41.116Z,23.80
2019-04-21T17:29:10.416Z,23.70
2019-04-21T17:31:39.318Z,23.50
2019-04-21T17:34:13.879Z,23.50
2019-04-21T17:36:39.287Z,23.40
2019-04-21T17:39:08.964Z,23.30
2019-04-21T17:41:54.127Z,23.10
2019-04-21T17:44:10.687Z,23.00
2019-04-21T17:46:46.616Z,22.90
2019-04-21T17:49:10.847Z,22.70
2019-04-21T17:52:01.075Z,22.60
2019-04-21T17:54:35.655Z,22.60
2019-04-21T17:57:24.598Z,22.40
2019-04-21T17:59:56.859Z,22.30
2019-04-21T18:02:17.518Z,22.20
2019-04-21T18:04:53.933Z,22.00
2019-04-21T18:07:21.575Z,21.90
2019-04-21T18:10:00.947Z,21.70
2019-04-21T18:12:26.700Z,21.50
2019-04-21T18:14:51.542Z,21.30
2019-04-21T18:17:10.874Z,21.00
2019-04-21T18:19:43.207Z,20.70
2019-04-21T18:22:17.503Z,20.50
2019-04-21T18:24:56.055Z,20.30
2019-04-21T18:27:18.007Z,20.10
2019-04-21T18:29:48.342Z,19.80
2019-04-21T18:32:24.848Z,19.50
2019-04-21T18:35:00.416Z,19.30
2019-04-21T18:37:40.147Z,19.00
2019-04-21T18:40:12.536Z,18.70
2019-04-21T18:42:52.952Z,18.40
2019-04-21T18:48:19.396Z,17.50
2019-04-21T18:51:04.011Z,17.20
2019-04-21T18:53:41.418Z,17.00
2019-04-21T18:56:03.691Z,16.80
2019-04-21T18:58:28.843Z,16.60
2019-04-21T19:01:05.431Z,16.40
2019-04-21T19:03:35.863Z,16.30
2019-04-21T19:06:03.857Z,16.10
2019-04-21T19:08:48.495Z,15.80
2019-04-21T19:11:19.603Z,15.50
2019-04-21T19:16:57.651Z,15.10
2019-04-21T19:19:33.044Z,15.00
2019-04-21T19:21:27.992Z,15.00
2019-04-21T19:24:15.646Z,14.90
2019-04-21T19:29:16.056Z,14.60
2019-04-21T19:31:38.298Z,14.50
2019-04-21T19:34:00.982Z,14.20
2019-04-21T19:36:19.218Z,14.00
2019-04-21T19:38:58.364Z,13.80
2019-04-21T19:41:32.829Z,13.70
2019-04-21T19:44:07.006Z,13.50
2019-04-21T19:46:35.678Z,13.30
2019-04-21T19:49:13.753Z,13.30
2019-04-21T19:51:33.931Z,13.30
2019-04-21T19:53:59.093Z,13.40
2019-04-21T19:56:19.260Z,13.40
2019-04-21T19:58:49.135Z,13.50
2019-04-21T20:01:19.275Z,13.60
2019-04-21T20:03:53.908Z,13.50
2019-04-21T20:06:33.088Z,13.30
2019-04-21T20:09:12.203Z,13.00
2019-04-21T20:11:34.645Z,12.70
2019-04-21T20:14:42.965Z,12.50
2019-04-21T20:16:37.417Z,12.50
2019-04-21T20:18:55.362Z,12.30
2019-04-21T20:21:20.664Z,12.20
2019-04-21T20:23:49.510Z,12.00
2019-04-21T20:26:21.991Z,11.80
2019-04-21T20:29:00.030Z,11.70
2019-04-21T20:31:36.727Z,11.60
2019-04-21T20:34:11.129Z,11.60
2019-04-21T20:36:43.203Z,11.50
2019-04-21T20:38:55.656Z,11.30
2019-04-21T20:41:32.194Z,11.20
2019-04-21T20:44:06.101Z,11.10
2019-04-21T20:46:35.111Z,11.00
2019-04-21T20:49:04.654Z,11.00
2019-04-21T20:51:37.916Z,10.90
2019-04-21T20:54:01.710Z,10.80
2019-04-21T20:56:40.913Z,10.60
2019-04-21T20:59:11.247Z,10.50
2019-04-21T21:01:34.774Z,10.50
2019-04-21T21:04:06.351Z,10.50
2019-04-21T21:06:36.174Z,10.50
2019-04-21T21:09:06.177Z,10.40
2019-04-21T21:11:56.914Z,10.40
2019-04-21T21:14:14.458Z,10.40
2019-04-21T21:16:58.247Z,10.40
2019-04-21T21:19:21.125Z,10.20
2019-04-21T21:21:34.122Z,10.10
2019-04-21T21:24:08.744Z,10.00
2019-04-21T21:26:38.243Z,10.00
2019-04-21T21:29:03.750Z,10.10
2019-04-21T21:31:42.119Z,10.10
2019-04-21T21:34:16.512Z,10.00
2019-04-21T21:36:42.864Z,9.80
2019-04-21T21:39:11.298Z,9.80
2019-04-21T21:41:29.849Z,9.90
2019-04-21T21:44:03.947Z,9.80
2019-04-21T21:46:40.306Z,9.60
2019-04-21T21:49:04.022Z,9.40
2019-04-21T21:51:42.275Z,9.30
2019-04-21T21:53:54.749Z,9.30
2019-04-21T21:56:24.621Z,9.20
2019-04-21T21:58:53.903Z,9.10
2019-04-21T22:01:31.813Z,9.00
2019-04-21T22:04:06.713Z,9.10
2019-04-21T22:06:34.217Z,9.00
2019-04-21T22:08:56.490Z,8.90
2019-04-21T22:11:26.258Z,8.90
2019-04-21T22:14:02.592Z,8.80
2019-04-21T22:16:39.000Z,8.70
2019-04-21T22:21:50.540Z,8.60
2019-04-21T22:24:04.834Z,8.60
2019-04-21T22:26:25.598Z,8.60
2019-04-21T22:28:54.060Z,8.50
2019-04-21T22:31:26.859Z,8.40
2019-04-21T22:33:56.375Z,8.30
2019-04-21T22:36:36.550Z,8.20
2019-04-21T22:39:13.092Z,8.10
2019-04-21T22:41:32.139Z,8.00
2019-04-21T22:43:54.221Z,7.90
2019-04-21T22:46:24.415Z,7.90
2019-04-21T22:48:57.151Z,7.80
2019-04-21T22:51:30.213Z,7.90
2019-04-21T22:53:55.846Z,8.00
2019-04-21T22:56:26.898Z,8.10
2019-04-21T22:58:54.992Z,8.20
2019-04-21T23:01:30.165Z,8.10
2019-04-21T23:04:00.450Z,8.10
2019-04-21T23:06:27.324Z,8.20
2019-04-21T23:08:55.127Z,8.20
2019-04-21T23:11:27.267Z,8.20
2019-04-21T23:14:04.014Z,8.20
2019-04-21T23:16:30.098Z,8.10
2019-04-21T23:19:11.453Z,7.90
2019-04-21T23:21:36.162Z,7.80
2019-04-21T23:24:10.107Z,7.70
2019-04-21T23:26:40.746Z,7.60
2019-04-21T23:29:15.708Z,7.70
2019-04-21T23:31:47.108Z,7.80
2019-04-21T23:33:55.177Z,7.80
2019-04-21T23:36:28.208Z,7.80
2019-04-21T23:38:55.410Z,7.80
2019-04-21T23:41:25.987Z,7.80
2019-04-21T23:44:00.355Z,7.80
2019-04-21T23:46:28.284Z,7.80
2019-04-21T23:49:07.434Z,7.90
2019-04-21T23:51:34.446Z,7.80
2019-04-21T23:53:55.352Z,7.90
2019-04-21T23:56:30.032Z,7.80
2019-04-21T23:58:59.866Z,7.60
